Time;durP1;ratioP1;P1;durP2;ratioP2;P2;SDS_P1;SDS_P2;PMS_P1;PMS_P2;Temp;Humidity;BMP_temperature;BMP_pressure;BME280_temperature;BME280_humidity;BME280_pressure;Samples;Min_cycle;Max_cycle;Signal;HPM_P1;HPM_P2
2023/05/10 04:20:46;;;;;;;0.20;0.20;;;;;;;;;;5653545;23;20467;-71
2023/05/10 04:23:16;;;;;;;0.40;0.40;;;;;;;;;;4975817;28;20211;-70
2023/05/10 04:25:44;;;;;;;0.22;0.20;;;;;;;;;;4976269;28;20247;-70
2023/05/10 04:28:12;;;;;;;0.30;0.30;;;;;;;;;;4975986;28;20610;-70
2023/05/10 04:30:41;;;;;;;0.30;0.30;;;;;;;;;;4975510;28;20732;-70
2023/05/10 04:33:09;;;;;;;0.30;0.30;;;;;;;;;;4975839;28;20219;-69
2023/05/10 04:35:37;;;;;;;0.30;0.30;;;;;;;;;;4976361;28;20666;-72
2023/05/10 04:38:05;;;;;;;0.30;0.30;;;;;;;;;;4977124;28;20207;-71
2023/05/10 04:40:35;;;;;;;0.30;0.30;;;;;;;;;;4975361;28;20582;-72
2023/05/10 04:43:03;;;;;;;0.30;0.30;;;;;;;;;;4975727;28;20188;-72
2023/05/10 04:45:31;;;;;;;0.30;0.30;;;;;;;;;;4975682;28;20207;-71
2023/05/10 04:47:59;;;;;;;0.30;0.30;;;;;;;;;;4975286;28;20725;-70
2023/05/10 04:50:27;;;;;;;0.28;0.28;;;;;;;;;;4975975;28;20227;-72
2023/05/10 04:52:55;;;;;;;0.20;0.20;;;;;;;;;;4975148;28;20719;-73
2023/05/10 04:55:23;;;;;;;0.30;0.30;;;;;;;;;;4976363;28;20230;-74
2023/05/10 04:57:52;;;;;;;0.30;0.30;;;;;;;;;;4976279;28;20203;-73
2023/05/10 05:00:21;;;;;;;0.25;0.25;;;;;;;;;;4975400;28;20235;-73
2023/05/10 05:02:49;;;;;;;0.20;0.20;;;;;;;;;;4975159;28;20598;-74
2023/05/10 05:05:17;;;;;;;0.30;0.30;;;;;;;;;;4975615;28;20207;-71
2023/05/10 05:07:45;;;;;;;0.30;0.30;;;;;;;;;;4975545;28;20222;-72
2023/05/10 05:10:13;;;;;;;0.30;0.30;;;;;;;;;;4975201;28;20231;-72
2023/05/10 05:12:41;;;;;;;0.30;0.30;;;;;;;;;;4975221;28;20222;-72
2023/05/10 05:15:11;;;;;;;0.30;0.30;;;;;;;;;;4976017;28;20199;-73
2023/05/10 05:17:39;;;;;;;0.30;0.30;;;;;;;;;;4975372;28;20250;-72
2023/05/10 05:20:08;;;;;;;0.30;0.30;;;;;;;;;;4975408;28;20231;-72
2023/05/10 05:22:36;;;;;;;0.25;0.25;;;;;;;;;;4990192;28;20194;-71
2023/05/10 05:25:04;;;;;;;0.30;0.30;;;;;;;;;;4989129;28;20204;-71
2023/05/10 05:27:31;;;;;;;0.30;0.30;;;;;;;;;;4985875;28;20666;-71
2023/05/10 05:29:59;;;;;;;0.30;0.30;;;;;;;;;;4974102;28;20227;-72
2023/05/10 05:32:28;;;;;;;0.20;0.20;;;;;;;;;;4974849;28;20223;-72
2023/05/10 05:34:56;;;;;;;0.25;0.25;;;;;;;;;;4975684;28;20203;-72
2023/05/10 05:37:24;;;;;;;0.20;0.20;;;;;;;;;;4974905;28;20210;-72
2023/05/10 05:39:54;;;;;;;0.25;0.25;;;;;;;;;;4974676;28;20223;-72
2023/05/10 05:42:22;;;;;;;0.20;0.20;;;;;;;;;;4974733;28;20203;-72
2023/05/10 05:44:51;;;;;;;0.28;0.28;;;;;;;;;;4974727;28;20207;-72
2023/05/10 05:47:18;;;;;;;0.30;0.30;;;;;;;;;;4974721;28;20207;-72
2023/05/10 05:49:46;;;;;;;0.20;0.20;;;12.10;99.90;;;;;;4974670;28;20275;-72
2023/05/10 05:52:12;;;;;;;0.30;0.30;;;12.10;99.90;;;;;;4974661;28;20255;-72
2023/05/10 05:54:39;;;;;;;0.57;0.30;;;12.00;99.90;;;;;;4978286;28;20203;-72
2023/05/10 05:57:07;;;;;;;0.30;0.30;;;12.00;99.90;;;;;;4979710;28;20535;-72
2023/05/10 05:59:34;;;;;;;0.20;0.20;;;12.00;99.90;;;;;;4979678;28;20302;-72
2023/05/10 06:02:01;;;;;;;0.40;0.40;;;12.20;99.90;;;;;;4979716;28;20203;-72
2023/05/10 06:04:28;;;;;;;0.30;0.30;;;12.20;99.90;;;;;;4980302;28;20231;-71
2023/05/10 06:06:57;;;;;;;0.30;0.30;;;12.20;99.90;;;;;;4978580;28;20214;-72
2023/05/10 06:09:24;;;;;;;0.40;0.40;;;12.30;99.90;;;;;;4979661;28;20211;-72
2023/05/10 06:11:51;;;;;;;0.30;0.30;;;12.30;99.90;;;;;;4979404;28;20234;-72
2023/05/10 06:14:20;;;;;;;0.40;0.40;;;12.40;99.90;;;;;;4978722;28;20213;-72
2023/05/10 06:16:48;;;;;;;0.30;0.30;;;12.50;99.90;;;;;;4978181;28;20206;-72
2023/05/10 06:19:15;;;;;;;0.40;0.40;;;12.40;99.90;;;;;;4979874;28;20235;-72
2023/05/10 06:21:41;;;;;;;0.40;0.40;;;12.40;99.90;;;;;;4974575;28;20366;-73
2023/05/10 06:24:09;;;;;;;0.45;0.45;;;12.30;99.90;;;;;;4974010;28;20207;-72
2023/05/10 06:26:36;;;;;;;0.30;0.30;;;12.40;99.90;;;;;;4974342;28;20207;-72
2023/05/10 06:29:03;;;;;;;0.30;0.30;;;12.50;99.90;;;;;;4974489;28;20210;-70
2023/05/10 06:31:30;;;;;;;0.40;0.40;;;12.50;99.90;;;;;;4974398;28;20226;-72
2023/05/10 06:33:57;;;;;;;0.30;0.30;;;12.50;99.90;;;;;;4974305;28;20226;-72
2023/05/10 06:36:26;;;;;;;0.40;0.40;;;12.60;99.90;;;;;;4974451;28;20199;-73
2023/05/10 06:38:52;;;;;;;0.30;0.30;;;12.70;99.90;;;;;;4974276;28;20207;-73
2023/05/10 06:41:21;;;;;;;0.40;0.40;;;12.90;99.90;;;;;;4974956;28;20223;-72
2023/05/10 06:43:47;;;;;;;0.20;0.20;;;12.90;99.90;;;;;;4977921;28;20199;-73
2023/05/10 06:46:14;;;;;;;0.30;0.30;;;13.10;99.90;;;;;;4977941;28;20208;-72
2023/05/10 06:48:41;;;;;;;0.40;0.40;;;13.20;99.90;;;;;;4977798;28;20210;-72
2023/05/10 06:51:08;;;;;;;0.30;0.30;;;13.30;99.90;;;;;;4977889;28;20223;-73
2023/05/10 06:53:34;;;;;;;0.40;0.40;;;13.40;99.90;;;;;;4977649;28;20220;-73
2023/05/10 06:56:02;;;;;;;0.40;0.40;;;13.50;99.90;;;;;;4977655;28;20214;-72
2023/05/10 06:58:30;;;;;;;0.20;0.20;;;13.50;99.90;;;;;;4977763;28;20199;-72
2023/05/10 07:01:03;;;;;;;0.35;0.35;;;13.70;99.90;;;;;;4977814;28;20224;-73
2023/05/10 07:03:30;;;;;;;0.30;0.30;;;13.80;99.90;;;;;;4977630;28;20212;-73
2023/05/10 07:06:02;;;;;;;0.30;0.30;;;14.00;99.90;;;;;;4977527;28;20195;-73
2023/05/10 07:08:29;;;;;;;0.40;0.40;;;14.10;99.90;;;;;;4977388;28;20215;-72
2023/05/10 07:11:01;;;;;;;0.30;0.30;;;14.30;99.90;;;;;;4977098;28;20710;-72
2023/05/10 07:13:27;;;;;;;0.30;0.30;;;14.50;99.90;;;;;;4977871;28;20211;-72
2023/05/10 07:15:55;;;;;;;1.38;0.32;;;14.60;99.90;;;;;;4977458;28;20206;-73
2023/05/10 07:18:22;;;;;;;0.65;0.50;;;14.70;99.90;;;;;;4977341;28;20219;-73
2023/05/10 07:20:49;;;;;;;0.43;0.43;;;14.70;99.90;;;;;;4977355;28;20231;-73
2023/05/10 07:23:17;;;;;;;0.25;0.25;;;14.70;99.90;;;;;;4977012;28;20218;-73
2023/05/10 07:25:46;;;;;;;0.30;0.30;;;14.90;99.90;;;;;;4977113;28;20206;-72
2023/05/10 07:28:13;;;;;;;0.38;0.38;;;15.00;99.90;;;;;;4976864;28;20258;-72
2023/05/10 07:30:39;;;;;;;0.40;0.40;;;15.20;99.90;;;;;;4977180;28;20255;-72
2023/05/10 07:33:08;;;;;;;0.30;0.30;;;15.30;99.90;;;;;;4977206;28;20222;-72
2023/05/10 07:35:35;;;;;;;0.57;0.43;;;15.20;99.90;;;;;;4977116;28;20239;-73
2023/05/10 07:38:01;;;;;;;0.30;0.30;;;15.20;99.90;;;;;;4977015;28;20313;-72
2023/05/10 07:40:29;;;;;;;0.32;0.32;;;15.30;99.90;;;;;;4976856;28;20229;-72
2023/05/10 07:42:56;;;;;;;0.30;0.30;;;15.20;99.90;;;;;;4976996;28;20187;-72
2023/05/10 07:45:23;;;;;;;0.30;0.30;;;15.20;99.90;;;;;;4976979;28;20551;-72
2023/05/10 07:47:50;;;;;;;0.30;0.30;;;15.30;99.90;;;;;;4976831;28;20207;-72
2023/05/10 07:50:18;;;;;;;0.30;0.30;;;15.40;99.90;;;;;;4976784;28;20250;-72
2023/05/10 07:52:45;;;;;;;0.30;0.30;;;15.40;99.90;;;;;;4976020;28;20246;-72
2023/05/10 07:55:12;;;;;;;0.40;0.40;;;15.70;99.90;;;;;;4976335;28;20687;-72
2023/05/10 07:57:39;;;;;;;0.40;0.40;;;15.80;99.90;;;;;;4976569;28;20202;-72
2023/05/10 08:00:07;;;;;;;0.30;0.30;;;16.20;99.90;;;;;;4976638;28;20218;-73
2023/05/10 08:02:34;;;;;;;0.20;0.20;;;16.60;99.90;;;;;;4976533;28;20214;-73
2023/05/10 08:05:01;;;;;;;0.30;0.30;;;16.90;99.90;;;;;;4976371;28;20210;-73
2023/05/10 08:07:29;;;;;;;0.30;0.30;;;17.20;99.90;;;;;;4976440;28;20233;-73
2023/05/10 08:09:56;;;;;;;0.25;0.25;;;17.30;99.90;;;;;;4976319;28;20223;-73
2023/05/10 08:12:23;;;;;;;0.20;0.20;;;17.60;99.90;;;;;;4976366;28;20203;-73
2023/05/10 08:14:49;;;;;;;0.30;0.30;;;17.80;99.90;;;;;;4976245;28;20226;-72
2023/05/10 08:17:18;;;;;;;0.20;0.20;;;18.00;99.90;;;;;;4976440;28;20199;-72
2023/05/10 08:19:44;;;;;;;0.82;0.20;;;18.00;99.90;;;;;;4976638;28;20207;-72
2023/05/10 08:22:11;;;;;;;0.30;0.30;;;17.60;99.90;;;;;;4976281;28;20187;-73
2023/05/10 08:24:41;;;;;;;0.20;0.20;;;17.40;99.90;;;;;;4976150;28;20191;-73
2023/05/10 08:27:09;;;;;;;0.25;0.25;;;17.20;99.90;;;;;;4977517;28;20203;-72
2023/05/10 08:29:35;;;;;;;0.40;0.40;;;16.60;99.90;;;;;;4975777;28;20543;-73
2023/05/10 08:32:06;;;;;;;0.47;0.30;;;16.10;99.90;;;;;;4976033;28;20207;-72
2023/05/10 08:34:33;;;;;;;0.55;0.40;;;15.40;99.90;;;;;;4975489;28;20724;-72
2023/05/10 08:37:00;;;;;;;0.55;0.43;;;14.70;99.90;;;;;;4975404;28;20614;-73
2023/05/10 08:39:27;;;;;;;0.75;0.50;;;14.10;99.90;;;;;;4975745;28;20210;-72
2023/05/10 08:41:58;;;;;;;0.40;0.40;;;13.60;99.90;;;;;;4975947;28;20218;-72
2023/05/10 08:44:26;;;;;;;0.40;0.40;;;13.00;99.90;;;;;;4976673;28;20187;-72
2023/05/10 08:46:55;;;;;;;0.75;0.40;;;12.70;99.90;;;;;;4975440;28;20230;-72
2023/05/10 08:49:23;;;;;;;0.40;0.40;;;12.50;99.90;;;;;;4975407;28;20203;-72
2023/05/10 08:51:55;;;;;;;1.90;0.32;;;12.30;99.90;;;;;;4975579;28;20246;-72
2023/05/10 08:54:22;;;;;;;0.47;0.47;;;12.60;99.90;;;;;;4975133;28;20610;-72
2023/05/10 08:56:49;;;;;;;1.85;0.50;;;12.20;99.90;;;;;;4975466;28;20226;-72
2023/05/10 08:59:17;;;;;;;0.47;0.47;;;12.10;99.90;;;;;;4975427;28;20203;-72
2023/05/10 09:01:48;;;;;;;0.38;0.38;;;12.00;99.90;;;;;;4975248;28;20223;-72
2023/05/10 09:04:14;;;;;;;0.40;0.40;;;12.00;99.90;;;;;;4975354;28;20187;-72
2023/05/10 09:06:42;;;;;;;0.40;0.40;;;12.10;99.90;;;;;;4975327;28;20203;-72
2023/05/10 09:09:08;;;;;;;0.40;0.40;;;12.30;99.90;;;;;;4975230;28;20207;-72
2023/05/10 09:11:35;;;;;;;0.73;0.40;;;12.40;99.90;;;;;;4975133;28;20234;-72
2023/05/10 09:14:03;;;;;;;0.30;0.30;;;12.60;99.90;;;;;;4975158;28;20227;-72
2023/05/10 09:16:32;;;;;;;0.40;0.40;;;12.70;99.90;;;;;;4975199;28;20242;-72
2023/05/10 09:18:59;;;;;;;0.55;0.40;;;12.70;99.90;;;;;;4975116;28;20210;-72
2023/05/10 09:21:26;;;;;;;0.40;0.28;;;12.90;99.90;;;;;;4975263;28;20224;-73
2023/05/10 09:23:54;;;;;;;0.30;0.30;;;13.10;99.90;;;;;;4974878;28;20214;-72
2023/05/10 09:26:23;;;;;;;0.30;0.30;;;13.30;99.90;;;;;;4975565;28;20203;-71
2023/05/10 09:28:54;;;;;;;0.30;0.30;;;13.40;99.90;;;;;;4975521;28;20210;-71
2023/05/10 09:31:21;;;;;;;0.30;0.30;;;13.60;99.90;;;;;;4974900;28;20315;-71
2023/05/10 09:33:51;;;;;;;0.57;0.43;;;13.90;99.90;;;;;;4975260;28;20235;-72
2023/05/10 09:36:18;;;;;;;0.50;0.50;;;14.10;99.90;;;;;;4975073;28;20691;-72
2023/05/10 09:38:49;;;;;;;0.40;0.40;;;14.30;99.90;;;;;;4975094;28;20210;-71
2023/05/10 09:41:20;;;;;;;0.40;0.40;;;14.40;99.90;;;;;;4974765;28;20269;-71
2023/05/10 09:43:47;;;;;;;0.52;0.52;;;14.60;99.90;;;;;;4975102;28;20230;-71
2023/05/10 09:46:15;;;;;;;2.78;0.50;;;14.80;99.90;;;;;;4975098;28;20266;-72
2023/05/10 09:48:45;;;;;;;0.45;0.45;;;15.00;99.90;;;;;;4974866;28;20203;-72
2023/05/10 09:51:20;;;;;;;0.40;0.40;;;15.60;99.90;;;;;;4974625;28;20223;-68
2023/05/10 09:53:47;;;;;;;0.35;0.20;;;15.00;99.90;;;;;;4974473;28;20207;-71
2023/05/10 09:56:14;;;;;;;0.38;0.38;;;15.20;99.90;;;;;;4974413;28;20713;-71
2023/05/10 09:58:41;;;;;;;0.30;0.30;;;15.30;99.90;;;;;;4974860;28;20200;-69
2023/05/10 10:01:17;;;;;;;0.35;0.30;;;;;;;;;;4980246;28;20297;-70
2023/05/10 10:03:44;;;;;;;0.20;0.20;;;;;;;;;;4980164;28;20552;-70
2023/05/10 10:06:11;;;;;;;0.30;0.30;;;;;;;;;;4979444;28;20207;-70
2023/05/10 10:08:40;;;;;;;0.20;0.20;;;;;;;;;;4978644;28;20574;-70
2023/05/10 10:11:07;;;;;;;0.35;0.30;;;;;;;;;;4980557;28;20223;-71
2023/05/10 10:13:36;;;;;;;0.30;0.30;;;;;;;;;;4980691;28;20223;-71
2023/05/10 10:16:09;;;;;;;0.40;0.40;;;;;;;;;;4978294;28;20384;-71
2023/05/10 10:18:38;;;;;;;0.43;0.43;;;;;;;;;;4978228;28;20615;-70
2023/05/10 10:21:06;;;;;;;0.45;0.40;;;;;;;;;;4978518;28;20222;-71
2023/05/10 10:23:33;;;;;;;0.40;0.40;;;;;;;;;;4978690;28;20221;-71
2023/05/10 10:26:02;;;;;;;0.30;0.30;;;;;;;;;;4978383;28;20207;-71
2023/05/10 10:28:34;;;;;;;0.40;0.30;;;;;;;;;;4978199;28;20230;-71
2023/05/10 10:31:14;;;;;;;0.40;0.40;;;15.70;99.90;;;;;;4977862;28;20781;-71
2023/05/10 10:33:56;;;;;;;0.77;0.35;;;15.80;99.90;;;;;;4978087;28;20207;-71
2023/05/10 10:36:23;;;;;;;1.10;0.40;;;;;;;;;;4999901;23;20231;-72
2023/05/10 10:38:59;;;;;;;0.82;0.50;;;;;;;;;;4977829;28;20211;-72
2023/05/10 10:41:31;;;;;;;0.32;0.32;;;;;;;;;;4978415;28;20191;-72
2023/05/10 10:44:18;;;;;;;0.90;0.38;;;;;;;;;;4977659;28;20199;-72
2023/05/10 10:47:02;;;;;;;2.42;0.40;;;;;;;;;;4957982;29;20551;-72
2023/05/10 10:49:30;;;;;;;1.20;0.40;;;;;;;;;;4957844;29;20659;-72
2023/05/10 10:52:20;;;;;;;0.38;0.38;;;;;;;;;;4958211;29;20212;-74
2023/05/10 10:54:52;;;;;;;0.30;0.30;;;;;;;;;;4957780;29;20714;-74
2023/05/10 10:57:22;;;;;;;1.25;0.40;;;;;;;;;;4958181;29;20219;-74
2023/05/10 10:59:53;;;;;;;0.43;0.40;;;;;;;;;;4958085;29;20208;-74
2023/05/10 11:02:37;;;;;;;0.30;0.30;;;;;;;;;;4958136;29;20184;-75
2023/05/10 11:05:20;;;;;;;0.38;0.38;;;;;;;;;;4957670;29;20219;-75
2023/05/10 11:07:56;;;;;;;0.30;0.30;;;;;;;;;;4957226;29;20211;-75
2023/05/10 11:10:26;;;;;;;1.65;0.40;;;;;;;;;;4957903;29;20377;-75
2023/05/10 11:13:04;;;;;;;0.30;0.30;;;;;;;;;;4957828;29;20623;-75
2023/05/10 11:15:33;;;;;;;0.30;0.30;;;;;;;;;;4957756;29;20315;-74
2023/05/10 11:18:02;;;;;;;0.30;0.30;;;;;;;;;;4957751;29;20204;-72
2023/05/10 11:20:33;;;;;;;0.70;0.50;;;;;;;;;;4957489;29;20203;-72
2023/05/10 11:23:15;;;;;;;0.43;0.40;;;;;;;;;;4957713;29;20184;-72
2023/05/10 11:25:44;;;;;;;0.30;0.30;;;;;;;;;;4957645;29;20314;-72
2023/05/10 11:28:14;;;;;;;0.40;0.40;;;;;;;;;;4956504;28;20267;-73
2023/05/10 11:30:42;;;;;;;0.77;0.50;;;;;;;;;;4957630;29;20258;-74
2023/05/10 11:33:11;;;;;;;0.40;0.40;;;;;;;;;;4957521;29;20203;-74
2023/05/10 11:35:42;;;;;;;0.73;0.40;;;;;;;;;;4956939;29;20231;-73
2023/05/10 11:38:10;;;;;;;3.95;0.50;;;;;;;;;;4957450;29;20227;-74
2023/05/10 11:40:41;;;;;;;1.55;0.50;;;;;;;;;;4957451;29;20207;-74
2023/05/10 11:43:14;;;;;;;3.83;0.80;;;;;;;;;;4957336;29;20595;-75
2023/05/10 11:45:44;;;;;;;3.15;0.70;;;;;;;;;;4957363;29;20231;-74
2023/05/10 11:48:12;;;;;;;2.58;0.55;;;;;;;;;;4957385;29;20196;-74
2023/05/10 11:50:42;;;;;;;1.02;0.70;;;;;;;;;;4957245;29;20207;-74
2023/05/10 11:53:12;;;;;;;1.75;0.60;;;;;;;;;;4957295;29;20207;-71
2023/05/10 11:55:51;;;;;;;2.90;0.70;;;;;;;;;;4957244;29;20243;-73
2023/05/10 11:58:21;;;;;;;2.88;0.70;;;;;;;;;;4957306;29;20196;-73
2023/05/10 12:00:50;;;;;;;2.20;0.50;;;;;;;;;;4957063;29;20276;-74
2023/05/10 12:03:21;;;;;;;0.77;0.52;;;;;;;;;;4957015;29;20220;-73
2023/05/10 12:05:49;;;;;;;0.90;0.57;;;;;;;;;;4956613;29;20719;-74
2023/05/10 12:08:18;;;;;;;0.98;0.88;;;;;;;;;;4957241;29;20204;-73
2023/05/10 12:10:46;;;;;;;2.13;0.85;;;;;;;;;;4957421;29;20274;-73
2023/05/10 12:13:17;;;;;;;2.40;0.60;;;;;;;;;;4956923;29;20227;-73
2023/05/10 12:15:47;;;;;;;0.47;0.47;;;;;;;;;;4956815;29;20232;-73
2023/05/10 12:18:21;;;;;;;0.77;0.60;;;;;;;;;;4956875;29;20263;-73
2023/05/10 12:20:54;;;;;;;0.60;0.60;;;;;;;;;;4956823;29;20191;-73
2023/05/10 12:23:24;;;;;;;0.63;0.63;;;;;;;;;;4956801;29;20192;-73
2023/05/10 12:25:55;;;;;;;0.50;0.50;;;;;;;;;;4956637;29;20279;-73
2023/05/10 12:28:23;;;;;;;0.85;0.50;;;;;;;;;;4956742;29;20192;-73
2023/05/10 12:30:55;;;;;;;2.00;0.70;;;;;;;;;;4956577;29;20212;-73
2023/05/10 12:33:23;;;;;;;1.67;0.80;;;;;;;;;;4956581;29;20219;-73
2023/05/10 12:35:52;;;;;;;1.27;0.55;;;;;;;;;;4955797;29;20665;-71
2023/05/10 12:38:30;;;;;;;5.05;0.80;;;;;;;;;;4956370;29;20619;-71
2023/05/10 12:40:57;;;;;;;0.63;0.63;;;;;;;;;;4956675;28;20211;-72
2023/05/10 12:43:25;;;;;;;0.60;0.50;;;;;;;;;;4956294;29;20215;-74
2023/05/10 12:45:53;;;;;;;0.65;0.65;;;;;;;;;;4955887;29;20703;-74
2023/05/10 12:48:20;;;;;;;0.70;0.40;;;;;;;;;;4956425;29;20578;-73
2023/05/10 12:50:50;;;;;;;2.55;0.60;;;;;;;;;;4956109;29;20207;-74
2023/05/10 12:53:19;;;;;;;0.65;0.50;;;;;;;;;;4955816;29;20639;-74
2023/05/10 12:55:51;;;;;;;0.55;0.55;;;;;;;;;;4955894;29;20290;-74
2023/05/10 12:58:21;;;;;;;0.50;0.50;;;;;;;;;;4956070;29;20191;-74
2023/05/10 13:00:49;;;;;;;0.63;0.50;;;;;;;;;;4956311;29;20206;-75
2023/05/10 13:03:17;;;;;;;0.50;0.50;;;;;;;;;;4955949;29;20207;-75
2023/05/10 13:05:43;;;;;;;0.75;0.47;;;17.00;95.40;;;;;;4955494;29;20571;-75
2023/05/10 13:08:11;;;;;;;0.60;0.40;;;17.20;86.30;;;;;;4955641;29;20211;-75
2023/05/10 13:10:38;;;;;;;1.50;0.35;;;17.30;76.20;;;;;;4955817;29;20574;-73
2023/05/10 13:13:05;;;;;;;0.32;0.32;;;17.40;74.60;;;;;;4955848;29;20255;-75
2023/05/10 13:15:31;;;;;;;0.20;0.20;;;17.60;66.30;;;;;;4956050;29;20227;-75
2023/05/10 13:17:58;;;;;;;0.40;0.40;;;17.60;59.10;;;;;;4956021;29;20223;-74
2023/05/10 13:20:26;;;;;;;0.95;0.40;;;17.80;60.90;;;;;;4955812;29;20208;-74
2023/05/10 13:22:52;;;;;;;0.40;0.35;;;17.80;59.60;;;;;;4955480;29;20214;-74
2023/05/10 13:25:21;;;;;;;0.73;0.30;;;18.00;64.70;;;;;;4955608;29;20246;-74
2023/05/10 13:27:47;;;;;;;0.30;0.30;;;17.80;65.40;;;;;;4955718;29;20668;-75
2023/05/10 13:30:14;;;;;;;0.40;0.40;;;17.90;61.10;;;;;;4955786;29;20211;-75
2023/05/10 13:32:41;;;;;;;0.63;0.30;;;18.00;58.60;;;;;;4955334;29;20575;-75
2023/05/10 13:35:08;;;;;;;0.28;0.28;;;18.10;57.10;;;;;;4955255;29;20242;-74
2023/05/10 13:37:37;;;;;;;0.50;0.38;;;16.90;60.20;;;;;;4955222;29;20227;-74
2023/05/10 13:40:04;;;;;;;0.30;0.30;;;18.30;64.60;;;;;;4955535;29;20199;-74
2023/05/10 13:42:33;;;;;;;1.45;0.20;;;18.30;61.30;;;;;;4955391;29;20231;-75
2023/05/10 13:45:00;;;;;;;0.25;0.25;;;18.40;59.70;;;;;;4955415;29;20267;-74
2023/05/10 13:47:27;;;;;;;1.80;0.35;;;18.50;54.70;;;;;;4955669;29;20233;-74
2023/05/10 13:49:54;;;;;;;0.22;0.22;;;18.40;52.40;;;;;;4955599;29;20324;-74
2023/05/10 13:52:21;;;;;;;0.40;0.40;;;18.20;49.50;;;;;;4954595;29;20211;-74
2023/05/10 13:54:47;;;;;;;0.88;0.30;;;18.00;52.80;;;;;;4955419;29;20564;-74
2023/05/10 13:57:16;;;;;;;0.30;0.30;;;17.90;50.50;;;;;;4955315;29;20234;-75
2023/05/10 13:59:44;;;;;;;0.40;0.40;;;17.80;52.00;;;;;;4955125;29;20251;-73
2023/05/10 14:02:12;;;;;;;0.32;0.32;;;17.60;53.30;;;;;;4955141;29;20199;-74
2023/05/10 14:04:39;;;;;;;0.38;0.30;;;17.60;55.70;;;;;;4954778;29;20699;-74
2023/05/10 14:07:06;;;;;;;0.20;0.20;;;17.70;57.90;;;;;;4955099;29;20223;-72
2023/05/10 14:09:32;;;;;;;0.20;0.20;;;17.80;59.00;;;;;;4955164;29;20222;-73
2023/05/10 14:11:59;;;;;;;0.32;0.30;;;17.90;58.80;;;;;;4955183;29;20221;-72
2023/05/10 14:14:26;;;;;;;0.30;0.30;;;17.60;54.80;;;;;;4954962;29;20241;-74
2023/05/10 14:16:54;;;;;;;0.20;0.20;;;17.50;55.60;;;;;;4954670;29;20659;-74
2023/05/10 14:19:21;;;;;;;0.75;0.75;;;17.30;55.70;;;;;;4955041;29;20204;-74
2023/05/10 14:21:47;;;;;;;1.30;0.73;;;17.10;57.90;;;;;;4955610;29;20250;-74
2023/05/10 14:24:14;;;;;;;0.80;0.43;;;17.00;60.20;;;;;;4955238;29;20238;-73
2023/05/10 14:26:41;;;;;;;0.70;0.70;;;17.00;62.90;;;;;;4954780;29;20746;-74
2023/05/10 14:29:08;;;;;;;0.45;0.45;;;17.00;59.60;;;;;;4955432;29;20207;-73
2023/05/10 14:31:34;;;;;;;0.40;0.40;;;17.00;58.90;;;;;;4955231;29;20211;-73
2023/05/10 14:34:02;;;;;;;0.80;0.50;;;17.00;61.30;;;;;;4955083;29;20207;-73
2023/05/10 14:36:29;;;;;;;0.40;0.40;;;17.00;58.90;;;;;;4954477;29;20227;-73
2023/05/10 14:38:56;;;;;;;0.50;0.50;;;16.90;59.20;;;;;;4954918;29;20242;-75
2023/05/10 14:41:24;;;;;;;0.40;0.40;;;16.80;64.50;;;;;;4954911;29;20213;-75
2023/05/10 14:43:51;;;;;;;0.40;0.40;;;16.70;68.30;;;;;;4954910;29;20396;-73
2023/05/10 14:46:17;;;;;;;0.93;0.50;;;16.40;67.10;;;;;;4954925;29;20227;-73
2023/05/10 14:48:44;;;;;;;0.85;0.40;;;16.10;72.10;;;;;;4954793;29;20208;-74
2023/05/10 14:51:12;;;;;;;0.40;0.40;;;15.70;90.80;;;;;;4954911;29;20263;-73
2023/05/10 14:53:39;;;;;;;0.47;0.45;;;15.30;99.90;;;;;;4954739;29;20215;-74
2023/05/10 14:56:06;;;;;;;0.60;0.60;;;14.90;99.90;;;;;;4954547;29;20227;-73
2023/05/10 14:58:33;;;;;;;1.10;0.40;;;14.60;99.90;;;;;;4955528;29;20232;-75
2023/05/10 15:01:00;;;;;;;0.75;0.52;;;14.30;99.90;;;;;;4954487;29;20292;-75
2023/05/10 15:03:27;;;;;;;2.20;0.80;;;14.00;99.90;;;;;;4956522;28;20682;-74
2023/05/10 15:05:55;;;;;;;0.73;0.73;;;13.80;99.90;;;;;;4958093;29;20235;-74
2023/05/10 15:08:24;;;;;;;1.52;0.73;;;13.70;99.90;;;;;;4958278;29;20207;-74
2023/05/10 15:10:51;;;;;;;0.68;0.60;;;13.50;99.90;;;;;;4957619;29;20651;-75
2023/05/10 15:13:18;;;;;;;0.50;0.50;;;13.40;99.90;;;;;;4957816;29;20216;-74
2023/05/10 15:15:44;;;;;;;1.80;0.70;;;13.30;99.90;;;;;;4957833;29;20223;-74
2023/05/10 15:18:11;;;;;;;0.70;0.70;;;13.20;99.90;;;;;;4957381;29;20216;-74
2023/05/10 15:20:38;;;;;;;1.75;0.80;;;13.20;99.90;;;;;;4957538;29;20689;-74
2023/05/10 15:23:04;;;;;;;1.30;0.57;;;13.20;99.90;;;;;;4957734;29;20204;-74
2023/05/10 15:25:34;;;;;;;0.40;0.40;;;13.20;99.90;;;;;;4957468;29;20691;-75
2023/05/10 15:28:01;;;;;;;1.48;0.47;;;13.30;99.90;;;;;;4958107;29;20287;-74
2023/05/10 15:30:28;;;;;;;0.90;0.70;;;13.40;99.90;;;;;;4957805;29;20200;-74
2023/05/10 15:32:55;;;;;;;1.08;0.60;;;13.50;99.90;;;;;;4957781;29;20208;-74
2023/05/10 16:03:52;;;;;;;0.82;0.82;;;14.40;99.90;;;;;;5326161;23;20238;-76
2023/05/10 16:06:18;;;;;;;0.82;0.82;;;14.30;99.90;;;;;;4976013;28;20574;-76
2023/05/10 16:08:45;;;;;;;0.52;0.52;;;14.20;99.90;;;;;;4976242;28;20540;-74
2023/05/10 16:11:12;;;;;;;0.55;0.50;;;14.20;99.90;;;;;;4976384;28;20208;-74
2023/05/10 16:13:38;;;;;;;0.43;0.43;;;14.10;99.90;;;;;;4976128;28;20231;-73
2023/05/10 16:16:07;;;;;;;0.50;0.50;;;14.10;99.90;;;;;;4976530;28;20251;-75
2023/05/10 16:18:34;;;;;;;0.85;0.85;;;14.00;99.90;;;;;;4975760;28;20698;-75
2023/05/10 16:21:02;;;;;;;0.98;0.98;;;13.90;99.90;;;;;;4976029;28;20208;-75
2023/05/10 16:23:29;;;;;;;0.60;0.60;;;13.80;99.90;;;;;;4975959;28;20255;-75
2023/05/10 16:25:56;;;;;;;0.60;0.60;;;13.70;99.90;;;;;;4976012;28;20203;-75
2023/05/10 16:28:22;;;;;;;0.50;0.50;;;13.70;99.90;;;;;;4976381;28;20269;-75
2023/05/10 16:30:49;;;;;;;0.57;0.57;;;13.60;99.90;;;;;;4976053;28;20206;-75
2023/05/10 16:33:16;;;;;;;0.52;0.52;;;13.60;99.90;;;;;;4975587;28;20729;-75
2023/05/10 16:35:43;;;;;;;0.70;0.70;;;13.60;99.90;;;;;;4975994;28;20209;-74
2023/05/10 16:38:11;;;;;;;0.75;0.70;;;13.60;99.90;;;;;;4975768;28;20226;-74
2023/05/10 16:40:38;;;;;;;0.40;0.40;;;13.60;99.90;;;;;;4975829;28;20207;-75
2023/05/10 16:43:05;;;;;;;0.73;0.73;;;13.60;99.90;;;;;;4975729;28;20224;-72
2023/05/10 16:45:32;;;;;;;0.40;0.40;;;13.70;99.90;;;;;;4975681;28;20199;-72
2023/05/10 16:47:58;;;;;;;0.50;0.50;;;13.70;99.90;;;;;;4975315;28;20675;-72
2023/05/10 16:50:25;;;;;;;0.50;0.50;;;13.80;99.90;;;;;;4975567;28;20207;-74
2023/05/10 16:52:52;;;;;;;0.60;0.60;;;13.90;99.90;;;;;;4975404;28;20222;-73
2023/05/10 16:55:20;;;;;;;0.50;0.50;;;13.90;99.90;;;;;;4975406;28;20187;-72
2023/05/10 16:57:47;;;;;;;0.50;0.50;;;14.00;99.90;;;;;;4975336;28;20670;-73
2023/05/10 17:00:15;;;;;;;0.40;0.40;;;14.00;99.90;;;;;;4976072;28;20589;-74
2023/05/10 17:02:41;;;;;;;0.38;0.30;;;14.00;99.90;;;;;;4975315;28;20219;-73
2023/05/10 17:05:09;;;;;;;0.63;0.63;;;14.00;99.90;;;;;;4975070;28;20211;-73
2023/05/10 17:07:35;;;;;;;0.40;0.40;;;13.90;99.90;;;;;;4975411;28;20184;-73
2023/05/10 17:10:02;;;;;;;0.35;0.35;;;13.90;99.90;;;;;;4975268;28;20203;-73
2023/05/10 17:12:30;;;;;;;0.40;0.40;;;13.80;99.90;;;;;;4975098;28;20230;-73
2023/05/10 17:14:57;;;;;;;0.40;0.40;;;13.80;99.90;;;;;;4975143;28;20210;-73
2023/05/10 17:17:24;;;;;;;0.55;0.55;;;13.70;99.90;;;;;;4975031;28;20222;-75
2023/05/10 17:19:51;;;;;;;0.73;0.45;;;13.60;99.90;;;;;;4974858;28;20690;-75
2023/05/10 17:22:17;;;;;;;0.30;0.30;;;13.50;99.90;;;;;;4975022;28;20215;-74
2023/05/10 17:24:45;;;;;;;0.30;0.30;;;13.40;99.90;;;;;;4975589;28;20218;-74
2023/05/10 17:27:12;;;;;;;0.47;0.47;;;13.40;99.90;;;;;;4974055;28;20203;-74
2023/05/10 17:29:40;;;;;;;0.40;0.40;;;13.30;99.90;;;;;;4974990;28;20207;-74
2023/05/10 17:32:07;;;;;;;0.38;0.38;;;13.30;99.90;;;;;;4974822;28;20208;-75
2023/05/10 17:34:34;;;;;;;0.40;0.40;;;13.20;99.90;;;;;;4974487;28;20207;-75
2023/05/10 17:37:01;;;;;;;0.30;0.30;;;13.10;99.90;;;;;;4974691;28;20199;-74
2023/05/10 17:39:28;;;;;;;0.50;0.50;;;13.10;99.90;;;;;;4974581;28;20219;-75
2023/05/10 17:41:54;;;;;;;0.40;0.40;;;13.00;99.90;;;;;;4974614;28;20203;-74
2023/05/10 17:44:21;;;;;;;0.32;0.32;;;12.90;99.90;;;;;;4974841;28;20227;-75
2023/05/10 17:46:49;;;;;;;0.35;0.35;;;12.80;99.90;;;;;;4974770;28;20230;-75
2023/05/10 17:49:16;;;;;;;0.70;0.30;;;12.70;99.90;;;;;;4974745;28;20206;-74
2023/05/10 17:51:43;;;;;;;1.00;0.40;;;12.50;99.90;;;;;;4974681;28;20199;-74
2023/05/10 17:54:10;;;;;;;0.40;0.40;;;12.40;99.90;;;;;;4974679;28;20298;-74
2023/05/10 17:56:36;;;;;;;0.40;0.40;;;12.30;99.90;;;;;;4975282;28;20286;-75
2023/05/10 17:59:03;;;;;;;0.38;0.38;;;12.20;99.90;;;;;;4974374;28;20223;-75
2023/05/10 18:01:30;;;;;;;0.25;0.25;;;12.20;99.90;;;;;;4974615;28;20200;-75
2023/05/10 18:03:58;;;;;;;0.30;0.30;;;12.10;99.90;;;;;;4974504;28;20226;-75
2023/05/10 18:06:25;;;;;;;0.30;0.30;;;12.00;99.90;;;;;;4974373;28;20684;-75
2023/05/10 18:08:51;;;;;;;0.25;0.25;;;11.90;99.90;;;;;;4974635;28;20214;-75
2023/05/10 18:11:18;;;;;;;0.30;0.30;;;11.80;99.90;;;;;;4974816;28;20216;-76
2023/05/10 18:13:44;;;;;;;1.77;0.50;;;11.70;99.90;;;;;;4974625;28;20231;-76
2023/05/10 18:16:12;;;;;;;0.30;0.30;;;11.70;99.90;;;;;;4974625;28;20686;-76